sensor_id;sensor_type;location;lat;lon;timestamp;temperature;humidity
48264;DHT22;34086;51.076;13.722;2022-10-15T11:12:06;17.40;99.90
48264;DHT22;34086;51.076;13.722;2022-10-15T11:15:03;17.50;99.90
48264;DHT22;34086;51.076;13.722;2022-10-15T11:21:44;17.50;99.90
48264;DHT22;34086;51.076;13.722;2022-10-15T11:24:34;17.50;99.90
48264;DHT22;34086;51.076;13.722;2022-10-15T11:30:17;17.70;99.90
48264;DHT22;34086;51.076;13.722;2022-10-15T11:31:42;17.80;99.90
48264;DHT22;34086;51.076;13.722;2022-10-15T11:35:48;17.80;99.90
48264;DHT22;34086;51.076;13.722;2022-10-15T11:38:44;17.80;99.90
48264;DHT22;34086;51.076;13.722;2022-10-15T11:40:00;17.80;99.90
48264;DHT22;34086;51.076;13.722;2022-10-15T11:42:34;17.80;99.90
48264;DHT22;34086;51.076;13.722;2022-10-15T11:44:16;17.80;99.90
48264;DHT22;34086;51.076;13.722;2022-10-15T11:45:50;17.80;99.90
48264;DHT22;34086;51.076;13.722;2022-10-15T11:47:15;17.80;99.90
48264;DHT22;34086;51.076;13.722;2022-10-15T11:48:28;17.80;99.90
48264;DHT22;34086;51.076;13.722;2022-10-15T11:51:00;17.80;99.90
48264;DHT22;34086;51.076;13.722;2022-10-15T11:55:40;18.10;99.90
48264;DHT22;34086;51.076;13.722;2022-10-15T11:56:44;18.10;99.90
48264;DHT22;34086;51.076;13.722;2022-10-15T11:57:49;18.20;99.90
48264;DHT22;34086;51.076;13.722;2022-10-15T11:58:57;18.20;99.90
48264;DHT22;34086;51.076;13.722;2022-10-15T12:01:26;18.20;99.90
48264;DHT22;34086;51.076;13.722;2022-10-15T12:02:37;18.10;99.90
48264;DHT22;34086;51.076;13.722;2022-10-15T12:03:54;18.00;99.90
48264;DHT22;34086;51.076;13.722;2022-10-15T12:05:06;18.00;99.90
48264;DHT22;34086;51.076;13.722;2022-10-15T12:06:25;18.00;99.90
48264;DHT22;34086;51.076;13.722;2022-10-15T12:07:50;18.00;99.90
48264;DHT22;34086;51.076;13.722;2022-10-15T12:08:56;17.90;99.90
48264;DHT22;34086;51.076;13.722;2022-10-15T12:11:34;17.80;99.90
48264;DHT22;34086;51.076;13.722;2022-10-15T12:13:13;17.90;99.90
48264;DHT22;34086;51.076;13.722;2022-10-15T12:15:51;17.90;99.90
48264;DHT22;34086;51.076;13.722;2022-10-15T12:18:36;17.90;99.90
48264;DHT22;34086;51.076;13.722;2022-10-15T12:19:47;18.00;99.90
48264;DHT22;34086;51.076;13.722;2022-10-15T12:20:49;18.00;99.90
48264;DHT22;34086;51.076;13.722;2022-10-15T12:23:02;18.10;99.90
48264;DHT22;34086;51.076;13.722;2022-10-15T12:25:46;18.20;99.90
48264;DHT22;34086;51.076;13.722;2022-10-15T12:26:48;18.20;99.90
48264;DHT22;34086;51.076;13.722;2022-10-15T12:28:11;18.20;99.90
48264;DHT22;34086;51.076;13.722;2022-10-15T12:29:24;18.20;99.90
48264;DHT22;34086;51.076;13.722;2022-10-15T12:30:29;18.20;99.90
48264;DHT22;34086;51.076;13.722;2022-10-15T12:32:12;18.20;99.90
48264;DHT22;34086;51.076;13.722;2022-10-15T12:33:28;18.10;99.90
48264;DHT22;34086;51.076;13.722;2022-10-15T12:34:41;18.10;99.90
48264;DHT22;34086;51.076;13.722;2022-10-15T12:35:42;18.00;99.90
48264;DHT22;34086;51.076;13.722;2022-10-15T12:36:43;18.00;99.90
48264;DHT22;34086;51.076;13.722;2022-10-15T12:37:48;18.00;99.90
48264;DHT22;34086;51.076;13.722;2022-10-15T12:39:22;18.00;99.90
48264;DHT22;34086;51.076;13.722;2022-10-15T12:40:30;18.00;99.90
48264;DHT22;34086;51.076;13.722;2022-10-15T12:41:38;18.00;99.90
48264;DHT22;34086;51.076;13.722;2022-10-15T12:42:40;17.90;99.90
48264;DHT22;34086;51.076;13.722;2022-10-15T12:43:44;17.90;99.90
48264;DHT22;34086;51.076;13.722;2022-10-15T12:44:48;17.90;99.90
48264;DHT22;34086;51.076;13.722;2022-10-15T12:45:52;17.90;99.90
48264;DHT22;34086;51.076;13.722;2022-10-15T12:46:54;17.90;99.90
48264;DHT22;34086;51.076;13.722;2022-10-15T12:50:34;18.00;99.90
48264;DHT22;34086;51.076;13.722;2022-10-15T12:51:38;18.10;99.90
48264;DHT22;34086;51.076;13.722;2022-10-15T12:53:27;18.00;99.90
48264;DHT22;34086;51.076;13.722;2022-10-15T12:54:40;18.10;99.90
48264;DHT22;34086;51.076;13.722;2022-10-15T12:55:44;18.20;99.90
48264;DHT22;34086;51.076;13.722;2022-10-15T12:58:33;18.30;99.90
48264;DHT22;34086;51.076;13.722;2022-10-15T13:00:43;18.30;99.90
48264;DHT22;34086;51.076;13.722;2022-10-15T13:02:46;18.40;99.90
48264;DHT22;34086;51.076;13.722;2022-10-15T13:04:50;18.50;99.90
48264;DHT22;34086;51.076;13.722;2022-10-15T13:05:54;18.50;99.90
48264;DHT22;34086;51.076;13.722;2022-10-15T13:07:23;18.60;99.90
48264;DHT22;34086;51.076;13.722;2022-10-15T13:08:25;18.60;99.90
48264;DHT22;34086;51.076;13.722;2022-10-15T13:09:28;18.70;99.90
48264;DHT22;34086;51.076;13.722;2022-10-15T13:10:34;18.70;99.90
48264;DHT22;34086;51.076;13.722;2022-10-15T13:11:54;18.80;99.90
48264;DHT22;34086;51.076;13.722;2022-10-15T13:12:59;18.90;99.90
48264;DHT22;34086;51.076;13.722;2022-10-15T13:15:33;19.00;99.90
48264;DHT22;34086;51.076;13.722;2022-10-15T13:16:34;19.00;99.90
48264;DHT22;34086;51.076;13.722;2022-10-15T13:17:38;19.00;99.90
48264;DHT22;34086;51.076;13.722;2022-10-15T13:18:40;19.10;99.90
48264;DHT22;34086;51.076;13.722;2022-10-15T13:20:00;19.10;99.90
48264;DHT22;34086;51.076;13.722;2022-10-15T13:21:04;19.10;99.90
48264;DHT22;34086;51.076;13.722;2022-10-15T13:22:17;19.10;99.90
48264;DHT22;34086;51.076;13.722;2022-10-15T13:23:24;19.00;99.90
48264;DHT22;34086;51.076;13.722;2022-10-15T13:24:29;19.00;99.90
48264;DHT22;34086;51.076;13.722;2022-10-15T13:25:30;18.90;99.90
48264;DHT22;34086;51.076;13.722;2022-10-15T13:26:31;18.90;99.90
48264;DHT22;34086;51.076;13.722;2022-10-15T13:27:36;18.80;99.90
48264;DHT22;34086;51.076;13.722;2022-10-15T13:28:41;18.70;99.90
48264;DHT22;34086;51.076;13.722;2022-10-15T13:29:53;18.50;99.90
48264;DHT22;34086;51.076;13.722;2022-10-15T13:30:54;18.50;99.90
48264;DHT22;34086;51.076;13.722;2022-10-15T13:31:59;18.50;99.90
48264;DHT22;34086;51.076;13.722;2022-10-15T13:33:00;18.50;99.90
48264;DHT22;34086;51.076;13.722;2022-10-15T13:34:15;18.50;99.90
48264;DHT22;34086;51.076;13.722;2022-10-15T13:35:24;18.50;99.90
48264;DHT22;34086;51.076;13.722;2022-10-15T13:36:31;18.50;99.90
48264;DHT22;34086;51.076;13.722;2022-10-15T13:37:34;18.50;99.90
48264;DHT22;34086;51.076;13.722;2022-10-15T13:38:37;18.50;99.90
48264;DHT22;34086;51.076;13.722;2022-10-15T13:39:39;18.50;99.90
48264;DHT22;34086;51.076;13.722;2022-10-15T13:40:46;18.50;99.90
48264;DHT22;34086;51.076;13.722;2022-10-15T13:41:48;18.50;99.90
48264;DHT22;34086;51.076;13.722;2022-10-15T13:43:12;18.50;99.90
48264;DHT22;34086;51.076;13.722;2022-10-15T13:44:23;18.40;99.90
48264;DHT22;34086;51.076;13.722;2022-10-15T13:45:24;18.40;99.90
48264;DHT22;34086;51.076;13.722;2022-10-15T13:46:28;18.40;99.90
48264;DHT22;34086;51.076;13.722;2022-10-15T13:47:34;18.40;99.90
48264;DHT22;34086;51.076;13.722;2022-10-15T13:48:40;18.40;99.90
48264;DHT22;34086;51.076;13.722;2022-10-15T13:49:41;18.40;99.90
48264;DHT22;34086;51.076;13.722;2022-10-15T13:50:45;18.40;99.90
48264;DHT22;34086;51.076;13.722;2022-10-15T13:51:48;18.50;99.90
48264;DHT22;34086;51.076;13.722;2022-10-15T13:52:54;18.50;99.90
48264;DHT22;34086;51.076;13.722;2022-10-15T13:53:56;18.50;99.90
48264;DHT22;34086;51.076;13.722;2022-10-15T13:54:58;18.60;99.90
48264;DHT22;34086;51.076;13.722;2022-10-15T13:56:02;18.60;99.90
48264;DHT22;34086;51.076;13.722;2022-10-15T13:57:03;18.60;99.90
48264;DHT22;34086;51.076;13.722;2022-10-15T13:58:26;18.60;99.90
48264;DHT22;34086;51.076;13.722;2022-10-15T13:59:29;18.60;99.90
48264;DHT22;34086;51.076;13.722;2022-10-15T14:00:34;18.60;99.90
48264;DHT22;34086;51.076;13.722;2022-10-15T14:01:47;18.60;99.90
48264;DHT22;34086;51.076;13.722;2022-10-15T14:03:12;18.60;99.90
48264;DHT22;34086;51.076;13.722;2022-10-15T14:04:16;18.60;99.90
48264;DHT22;34086;51.076;13.722;2022-10-15T14:05:16;18.60;99.90
48264;DHT22;34086;51.076;13.722;2022-10-15T14:07:23;18.50;99.90
48264;DHT22;34086;51.076;13.722;2022-10-15T14:08:28;18.50;99.90
48264;DHT22;34086;51.076;13.722;2022-10-15T14:09:34;18.50;99.90
48264;DHT22;34086;51.076;13.722;2022-10-15T14:10:35;18.40;99.90
48264;DHT22;34086;51.076;13.722;2022-10-15T14:11:36;18.40;99.90
48264;DHT22;34086;51.076;13.722;2022-10-15T14:12:38;18.40;99.90
48264;DHT22;34086;51.076;13.722;2022-10-15T14:13:53;18.30;99.90
48264;DHT22;34086;51.076;13.722;2022-10-15T14:14:54;18.30;99.90
48264;DHT22;34086;51.076;13.722;2022-10-15T14:16:01;18.30;99.90
48264;DHT22;34086;51.076;13.722;2022-10-15T14:18:36;18.30;99.90
48264;DHT22;34086;51.076;13.722;2022-10-15T14:19:39;18.30;99.90
48264;DHT22;34086;51.076;13.722;2022-10-15T14:20:46;18.30;99.90
48264;DHT22;34086;51.076;13.722;2022-10-15T14:21:47;18.30;99.90
48264;DHT22;34086;51.076;13.722;2022-10-15T14:22:51;18.30;99.90
48264;DHT22;34086;51.076;13.722;2022-10-15T14:23:52;18.30;99.90
48264;DHT22;34086;51.076;13.722;2022-10-15T14:25:08;18.30;99.90
48264;DHT22;34086;51.076;13.722;2022-10-15T14:26:10;18.20;99.90
48264;DHT22;34086;51.076;13.722;2022-10-15T14:27:16;18.20;99.90
48264;DHT22;34086;51.076;13.722;2022-10-15T14:28:22;18.20;99.90
48264;DHT22;34086;51.076;13.722;2022-10-15T14:29:28;18.20;99.90
48264;DHT22;34086;51.076;13.722;2022-10-15T14:30:34;18.20;99.90
48264;DHT22;34086;51.076;13.722;2022-10-15T14:31:39;18.20;99.90
48264;DHT22;34086;51.076;13.722;2022-10-15T14:32:46;18.20;99.90
48264;DHT22;34086;51.076;13.722;2022-10-15T14:33:47;18.30;99.90
48264;DHT22;34086;51.076;13.722;2022-10-15T14:35:33;18.30;99.90
48264;DHT22;34086;51.076;13.722;2022-10-15T14:36:41;18.30;99.90
48264;DHT22;34086;51.076;13.722;2022-10-15T14:37:42;18.40;99.90
48264;DHT22;34086;51.076;13.722;2022-10-15T14:38:42;18.40;99.90
48264;DHT22;34086;51.076;13.722;2022-10-15T14:39:46;18.50;99.90
48264;DHT22;34086;51.076;13.722;2022-10-15T14:41:02;18.50;99.90
48264;DHT22;34086;51.076;13.722;2022-10-15T14:42:26;18.50;99.90
48264;DHT22;34086;51.076;13.722;2022-10-15T14:43:34;18.40;99.90
48264;DHT22;34086;51.076;13.722;2022-10-15T14:44:41;18.50;99.90
48264;DHT22;34086;51.076;13.722;2022-10-15T14:46:59;18.40;99.90
48264;DHT22;34086;51.076;13.722;2022-10-15T14:48:13;18.40;99.90
48264;DHT22;34086;51.076;13.722;2022-10-15T14:50:31;18.40;99.90
48264;DHT22;34086;51.076;13.722;2022-10-15T14:51:32;18.40;99.90
48264;DHT22;34086;51.076;13.722;2022-10-15T14:52:35;18.40;99.90
48264;DHT22;34086;51.076;13.722;2022-10-15T14:53:37;18.40;99.90
48264;DHT22;34086;51.076;13.722;2022-10-15T14:54:45;18.40;99.90
48264;DHT22;34086;51.076;13.722;2022-10-15T14:55:54;18.40;99.90
48264;DHT22;34086;51.076;13.722;2022-10-15T14:56:56;18.40;99.90
48264;DHT22;34086;51.076;13.722;2022-10-15T14:57:57;18.40;99.90
48264;DHT22;34086;51.076;13.722;2022-10-15T14:58:58;18.40;99.90
48264;DHT22;34086;51.076;13.722;2022-10-15T15:00:01;18.40;99.90
48264;DHT22;34086;51.076;13.722;2022-10-15T15:01:04;18.30;99.90
48264;DHT22;34086;51.076;13.722;2022-10-15T15:02:13;18.30;99.90
48264;DHT22;34086;51.076;13.722;2022-10-15T15:03:20;18.30;99.90
48264;DHT22;34086;51.076;13.722;2022-10-15T15:04:43;18.30;99.90
48264;DHT22;34086;51.076;13.722;2022-10-15T15:05:47;18.30;99.90
48264;DHT22;34086;51.076;13.722;2022-10-15T15:06:48;18.30;99.90
48264;DHT22;34086;51.076;13.722;2022-10-15T15:07:49;18.30;99.90
48264;DHT22;34086;51.076;13.722;2022-10-15T15:08:50;18.20;99.90
48264;DHT22;34086;51.076;13.722;2022-10-15T15:09:51;18.20;99.90
48264;DHT22;34086;51.076;13.722;2022-10-15T15:10:54;18.20;99.90
48264;DHT22;34086;51.076;13.722;2022-10-15T15:11:55;18.20;99.90
48264;DHT22;34086;51.076;13.722;2022-10-15T15:12:56;18.20;99.90
48264;DHT22;34086;51.076;13.722;2022-10-15T15:13:57;18.20;99.90
48264;DHT22;34086;51.076;13.722;2022-10-15T15:14:58;18.20;99.90
48264;DHT22;34086;51.076;13.722;2022-10-15T15:16:01;18.10;99.90
48264;DHT22;34086;51.076;13.722;2022-10-15T15:17:02;18.10;99.90
48264;DHT22;34086;51.076;13.722;2022-10-15T15:18:03;18.10;99.90
48264;DHT22;34086;51.076;13.722;2022-10-15T15:19:07;18.10;99.90
48264;DHT22;34086;51.076;13.722;2022-10-15T15:20:08;18.10;99.90
48264;DHT22;34086;51.076;13.722;2022-10-15T15:21:14;18.10;99.90
48264;DHT22;34086;51.076;13.722;2022-10-15T15:22:20;18.00;99.90
48264;DHT22;34086;51.076;13.722;2022-10-15T15:23:24;18.00;99.90
48264;DHT22;34086;51.076;13.722;2022-10-15T15:24:26;18.00;99.90
48264;DHT22;34086;51.076;13.722;2022-10-15T15:25:32;17.90;99.90
48264;DHT22;34086;51.076;13.722;2022-10-15T15:26:34;17.90;99.90
48264;DHT22;34086;51.076;13.722;2022-10-15T15:27:35;17.90;99.90
48264;DHT22;34086;51.076;13.722;2022-10-15T15:28:37;17.90;99.90
48264;DHT22;34086;51.076;13.722;2022-10-15T15:29:37;17.90;99.90
48264;DHT22;34086;51.076;13.722;2022-10-15T15:30:40;17.90;99.90
48264;DHT22;34086;51.076;13.722;2022-10-15T15:31:42;17.90;99.90
48264;DHT22;34086;51.076;13.722;2022-10-15T15:32:43;17.80;99.90
48264;DHT22;34086;51.076;13.722;2022-10-15T15:33:44;17.80;99.90
48264;DHT22;34086;51.076;13.722;2022-10-15T15:34:46;17.80;99.90
48264;DHT22;34086;51.076;13.722;2022-10-15T15:35:49;17.80;99.90
48264;DHT22;34086;51.076;13.722;2022-10-15T15:36:50;17.70;99.90
48264;DHT22;34086;51.076;13.722;2022-10-15T15:37:51;17.70;99.90
48264;DHT22;34086;51.076;13.722;2022-10-15T15:38:53;17.70;99.90
48264;DHT22;34086;51.076;13.722;2022-10-15T15:39:58;17.70;99.90
48264;DHT22;34086;51.076;13.722;2022-10-15T15:41:10;17.70;99.90
48264;DHT22;34086;51.076;13.722;2022-10-15T15:42:19;17.70;99.90
48264;DHT22;34086;51.076;13.722;2022-10-15T15:43:20;17.70;99.90
48264;DHT22;34086;51.076;13.722;2022-10-15T15:44:21;17.70;99.90
48264;DHT22;34086;51.076;13.722;2022-10-15T15:45:23;17.70;99.90
48264;DHT22;34086;51.076;13.722;2022-10-15T15:46:24;17.60;99.90
48264;DHT22;34086;51.076;13.722;2022-10-15T15:47:25;17.60;99.90
48264;DHT22;34086;51.076;13.722;2022-10-15T15:48:26;17.60;99.90
48264;DHT22;34086;51.076;13.722;2022-10-15T15:49:26;17.50;99.90
48264;DHT22;34086;51.076;13.722;2022-10-15T15:50:27;17.50;99.90
48264;DHT22;34086;51.076;13.722;2022-10-15T15:51:28;17.50;99.90
48264;DHT22;34086;51.076;13.722;2022-10-15T15:52:31;17.40;99.90
48264;DHT22;34086;51.076;13.722;2022-10-15T15:53:32;17.40;99.90
48264;DHT22;34086;51.076;13.722;2022-10-15T15:54:33;17.30;99.90
48264;DHT22;34086;51.076;13.722;2022-10-15T15:55:33;17.30;99.90
48264;DHT22;34086;51.076;13.722;2022-10-15T15:56:34;17.20;99.90
48264;DHT22;34086;51.076;13.722;2022-10-15T15:57:35;17.20;99.90
48264;DHT22;34086;51.076;13.722;2022-10-15T15:58:36;17.10;99.90
48264;DHT22;34086;51.076;13.722;2022-10-15T15:59:36;17.10;99.90
48264;DHT22;34086;51.076;13.722;2022-10-15T16:00:37;17.10;99.90
48264;DHT22;34086;51.076;13.722;2022-10-15T16:01:38;17.00;99.90
48264;DHT22;34086;51.076;13.722;2022-10-15T16:02:39;17.00;99.90
48264;DHT22;34086;51.076;13.722;2022-10-15T16:03:40;17.00;99.90
48264;DHT22;34086;51.076;13.722;2022-10-15T16:04:40;17.00;99.90
48264;DHT22;34086;51.076;13.722;2022-10-15T16:05:41;17.00;99.90
48264;DHT22;34086;51.076;13.722;2022-10-15T16:06:42;17.00;99.90
48264;DHT22;34086;51.076;13.722;2022-10-15T16:07:43;17.00;99.90
48264;DHT22;34086;51.076;13.722;2022-10-15T16:08:44;16.90;99.90
48264;DHT22;34086;51.076;13.722;2022-10-15T16:09:45;17.00;99.90
48264;DHT22;34086;51.076;13.722;2022-10-15T16:10:45;17.00;99.90
48264;DHT22;34086;51.076;13.722;2022-10-15T16:11:46;17.00;99.90
48264;DHT22;34086;51.076;13.722;2022-10-15T16:12:47;17.00;99.90
48264;DHT22;34086;51.076;13.722;2022-10-15T16:13:47;17.10;99.90
48264;DHT22;34086;51.076;13.722;2022-10-15T16:14:48;17.10;99.90
48264;DHT22;34086;51.076;13.722;2022-10-15T16:15:49;17.10;99.90
48264;DHT22;34086;51.076;13.722;2022-10-15T16:16:49;17.10;99.90
48264;DHT22;34086;51.076;13.722;2022-10-15T16:17:50;17.10;99.90
48264;DHT22;34086;51.076;13.722;2022-10-15T16:18:51;17.00;99.90
48264;DHT22;34086;51.076;13.722;2022-10-15T16:19:51;17.00;99.90
48264;DHT22;34086;51.076;13.722;2022-10-15T16:20:52;17.00;99.90
48264;DHT22;34086;51.076;13.722;2022-10-15T16:21:53;16.90;99.90
48264;DHT22;34086;51.076;13.722;2022-10-15T16:22:53;16.90;99.90
48264;DHT22;34086;51.076;13.722;2022-10-15T16:23:54;16.80;99.90
48264;DHT22;34086;51.076;13.722;2022-10-15T16:24:55;16.80;99.90
48264;DHT22;34086;51.076;13.722;2022-10-15T16:25:55;16.80;99.90
48264;DHT22;34086;51.076;13.722;2022-10-15T16:26:59;16.80;99.90
48264;DHT22;34086;51.076;13.722;2022-10-15T16:27:59;16.80;99.90
48264;DHT22;34086;51.076;13.722;2022-10-15T16:29:01;16.80;99.90
48264;DHT22;34086;51.076;13.722;2022-10-15T16:30:03;16.80;99.90
48264;DHT22;34086;51.076;13.722;2022-10-15T16:31:18;16.80;99.90
48264;DHT22;34086;51.076;13.722;2022-10-15T16:32:19;16.80;99.90
48264;DHT22;34086;51.076;13.722;2022-10-15T16:33:19;16.70;99.90
48264;DHT22;34086;51.076;13.722;2022-10-15T16:34:20;16.70;99.90
48264;DHT22;34086;51.076;13.722;2022-10-15T16:35:21;16.70;99.90
48264;DHT22;34086;51.076;13.722;2022-10-15T16:36:21;16.60;99.90
48264;DHT22;34086;51.076;13.722;2022-10-15T16:37:22;16.70;99.90
48264;DHT22;34086;51.076;13.722;2022-10-15T16:38:23;16.60;99.90
48264;DHT22;34086;51.076;13.722;2022-10-15T16:39:24;16.60;99.90
48264;DHT22;34086;51.076;13.722;2022-10-15T16:40:24;16.60;99.90
48264;DHT22;34086;51.076;13.722;2022-10-15T16:41:25;16.60;99.90
48264;DHT22;34086;51.076;13.722;2022-10-15T16:42:25;16.60;99.90
48264;DHT22;34086;51.076;13.722;2022-10-15T16:43:26;16.60;99.90
48264;DHT22;34086;51.076;13.722;2022-10-15T16:44:27;16.60;99.90
48264;DHT22;34086;51.076;13.722;2022-10-15T16:45:27;16.60;99.90
48264;DHT22;34086;51.076;13.722;2022-10-15T16:46:28;16.60;99.90
48264;DHT22;34086;51.076;13.722;2022-10-15T16:47:29;16.60;99.90
48264;DHT22;34086;51.076;13.722;2022-10-15T16:48:30;16.60;99.90
48264;DHT22;34086;51.076;13.722;2022-10-15T16:49:31;16.50;99.90
48264;DHT22;34086;51.076;13.722;2022-10-15T16:50:32;16.50;99.90
48264;DHT22;34086;51.076;13.722;2022-10-15T16:51:33;16.50;99.90
48264;DHT22;34086;51.076;13.722;2022-10-15T16:52:33;16.50;99.90
48264;DHT22;34086;51.076;13.722;2022-10-15T16:53:38;16.50;99.90
48264;DHT22;34086;51.076;13.722;2022-10-15T16:54:40;16.40;99.90
48264;DHT22;34086;51.076;13.722;2022-10-15T16:55:52;16.50;99.90
48264;DHT22;34086;51.076;13.722;2022-10-15T16:56:52;16.40;99.90
48264;DHT22;34086;51.076;13.722;2022-10-15T16:57:53;16.40;99.90
48264;DHT22;34086;51.076;13.722;2022-10-15T16:58:54;16.40;99.90
48264;DHT22;34086;51.076;13.722;2022-10-15T16:59:55;16.40;99.90
48264;DHT22;34086;51.076;13.722;2022-10-15T17:01:05;16.50;99.90
48264;DHT22;34086;51.076;13.722;2022-10-15T17:02:07;16.50;99.90
48264;DHT22;34086;51.076;13.722;2022-10-15T17:03:08;16.50;99.90
48264;DHT22;34086;51.076;13.722;2022-10-15T17:04:09;16.60;99.90
48264;DHT22;34086;51.076;13.722;2022-10-15T17:05:09;16.50;99.90
48264;DHT22;34086;51.076;13.722;2022-10-15T17:06:12;16.60;99.90
48264;DHT22;34086;51.076;13.722;2022-10-15T17:07:14;16.60;99.90
48264;DHT22;34086;51.076;13.722;2022-10-15T17:08:15;16.70;99.90
48264;DHT22;34086;51.076;13.722;2022-10-15T17:09:15;16.60;99.90
48264;DHT22;34086;51.076;13.722;2022-10-15T17:10:16;16.70;99.90
48264;DHT22;34086;51.076;13.722;2022-10-15T17:11:21;16.70;99.90
48264;DHT22;34086;51.076;13.722;2022-10-15T17:12:22;16.70;99.90
48264;DHT22;34086;51.076;13.722;2022-10-15T17:13:22;16.80;99.90
48264;DHT22;34086;51.076;13.722;2022-10-15T17:14:23;16.80;99.90
48264;DHT22;34086;51.076;13.722;2022-10-15T17:15:24;16.80;99.90
48264;DHT22;34086;51.076;13.722;2022-10-15T17:16:26;16.80;99.90
48264;DHT22;34086;51.076;13.722;2022-10-15T17:17:29;16.80;99.90
48264;DHT22;34086;51.076;13.722;2022-10-15T17:18:30;16.80;99.90
48264;DHT22;34086;51.076;13.722;2022-10-15T17:19:33;16.80;99.90
48264;DHT22;34086;51.076;13.722;2022-10-15T17:20:42;16.80;99.90
48264;DHT22;34086;51.076;13.722;2022-10-15T17:21:43;16.80;99.90
48264;DHT22;34086;51.076;13.722;2022-10-15T17:22:44;16.80;99.90
48264;DHT22;34086;51.076;13.722;2022-10-15T17:23:45;16.70;99.90
48264;DHT22;34086;51.076;13.722;2022-10-15T17:24:48;16.70;99.90
48264;DHT22;34086;51.076;13.722;2022-10-15T17:25:49;16.70;99.90
48264;DHT22;34086;51.076;13.722;2022-10-15T17:26:49;16.60;99.90
48264;DHT22;34086;51.076;13.722;2022-10-15T17:27:50;16.60;99.90
48264;DHT22;34086;51.076;13.722;2022-10-15T17:28:55;16.50;99.90
48264;DHT22;34086;51.076;13.722;2022-10-15T17:29:55;16.50;99.90
48264;DHT22;34086;51.076;13.722;2022-10-15T17:31:01;16.40;99.90
48264;DHT22;34086;51.076;13.722;2022-10-15T17:32:03;16.40;99.90
48264;DHT22;34086;51.076;13.722;2022-10-15T17:33:04;16.30;99.90
48264;DHT22;34086;51.076;13.722;2022-10-15T17:34:06;16.30;99.90
48264;DHT22;34086;51.076;13.722;2022-10-15T17:35:07;16.20;99.90
48264;DHT22;34086;51.076;13.722;2022-10-15T17:36:14;16.10;99.90
48264;DHT22;34086;51.076;13.722;2022-10-15T17:37:16;16.10;99.90
48264;DHT22;34086;51.076;13.722;2022-10-15T17:38:17;16.00;99.90
48264;DHT22;34086;51.076;13.722;2022-10-15T17:39:19;15.90;99.90
48264;DHT22;34086;51.076;13.722;2022-10-15T17:40:21;15.90;99.90
48264;DHT22;34086;51.076;13.722;2022-10-15T17:41:24;15.80;99.90
48264;DHT22;34086;51.076;13.722;2022-10-15T17:42:25;15.80;99.90
48264;DHT22;34086;51.076;13.722;2022-10-15T17:43:26;15.70;99.90
48264;DHT22;34086;51.076;13.722;2022-10-15T17:44:29;15.70;99.90
48264;DHT22;34086;51.076;13.722;2022-10-15T17:45:32;15.70;99.90
48264;DHT22;34086;51.076;13.722;2022-10-15T17:46:36;15.60;99.90
48264;DHT22;34086;51.076;13.722;2022-10-15T17:47:37;15.60;99.90
48264;DHT22;34086;51.076;13.722;2022-10-15T17:48:38;15.60;99.90
48264;DHT22;34086;51.076;13.722;2022-10-15T17:49:42;15.50;99.90
48264;DHT22;34086;51.076;13.722;2022-10-15T17:50:46;15.50;99.90
48264;DHT22;34086;51.076;13.722;2022-10-15T17:51:47;15.40;99.90
48264;DHT22;34086;51.076;13.722;2022-10-15T17:52:47;15.40;99.90
48264;DHT22;34086;51.076;13.722;2022-10-15T17:53:50;15.40;99.90
48264;DHT22;34086;51.076;13.722;2022-10-15T17:54:51;15.40;99.90
48264;DHT22;34086;51.076;13.722;2022-10-15T17:55:58;15.40;99.90
48264;DHT22;34086;51.076;13.722;2022-10-15T17:57:02;15.30;99.90
48264;DHT22;34086;51.076;13.722;2022-10-15T17:58:03;15.30;99.90
48264;DHT22;34086;51.076;13.722;2022-10-15T17:59:05;15.30;99.90
48264;DHT22;34086;51.076;13.722;2022-10-15T18:00:07;15.30;99.90
48264;DHT22;34086;51.076;13.722;2022-10-15T18:01:22;15.20;99.90
48264;DHT22;34086;51.076;13.722;2022-10-15T18:02:29;15.20;99.90
48264;DHT22;34086;51.076;13.722;2022-10-15T18:03:29;15.20;99.90
48264;DHT22;34086;51.076;13.722;2022-10-15T18:04:30;15.20;99.90
48264;DHT22;34086;51.076;13.722;2022-10-15T18:05:31;15.20;99.90
48264;DHT22;34086;51.076;13.722;2022-10-15T18:06:32;15.10;99.90
48264;DHT22;34086;51.076;13.722;2022-10-15T18:07:32;15.10;99.90
48264;DHT22;34086;51.076;13.722;2022-10-15T18:08:34;15.10;99.90
48264;DHT22;34086;51.076;13.722;2022-10-15T18:09:34;15.10;99.90
48264;DHT22;34086;51.076;13.722;2022-10-15T18:10:36;15.10;99.90
48264;DHT22;34086;51.076;13.722;2022-10-15T18:11:37;15.00;99.90
48264;DHT22;34086;51.076;13.722;2022-10-15T18:12:38;15.10;99.90
48264;DHT22;34086;51.076;13.722;2022-10-15T18:13:39;15.10;99.90
48264;DHT22;34086;51.076;13.722;2022-10-15T18:14:42;15.00;99.90
48264;DHT22;34086;51.076;13.722;2022-10-15T18:15:47;15.00;99.90
48264;DHT22;34086;51.076;13.722;2022-10-15T18:16:48;15.00;99.90
48264;DHT22;34086;51.076;13.722;2022-10-15T18:17:49;15.00;99.90
48264;DHT22;34086;51.076;13.722;2022-10-15T18:18:51;15.00;99.90
48264;DHT22;34086;51.076;13.722;2022-10-15T18:19:51;15.00;99.90
48264;DHT22;34086;51.076;13.722;2022-10-15T18:20:52;15.00;99.90
48264;DHT22;34086;51.076;13.722;2022-10-15T18:21:54;14.90;99.90
48264;DHT22;34086;51.076;13.722;2022-10-15T18:22:57;14.90;99.90
48264;DHT22;34086;51.076;13.722;2022-10-15T18:23:59;14.90;99.90
48264;DHT22;34086;51.076;13.722;2022-10-15T18:25:00;14.90;99.90
48264;DHT22;34086;51.076;13.722;2022-10-15T18:27:07;14.90;99.90
48264;DHT22;34086;51.076;13.722;2022-10-15T18:28:08;14.80;99.90
48264;DHT22;34086;51.076;13.722;2022-10-15T18:29:09;14.80;99.90
48264;DHT22;34086;51.076;13.722;2022-10-15T18:30:10;14.80;99.90
48264;DHT22;34086;51.076;13.722;2022-10-15T18:31:11;14.80;99.90
48264;DHT22;34086;51.076;13.722;2022-10-15T18:32:14;14.80;99.90
48264;DHT22;34086;51.076;13.722;2022-10-15T18:33:14;14.80;99.90
48264;DHT22;34086;51.076;13.722;2022-10-15T18:34:15;14.70;99.90
48264;DHT22;34086;51.076;13.722;2022-10-15T18:35:16;14.70;99.90
48264;DHT22;34086;51.076;13.722;2022-10-15T18:36:23;14.70;99.90
48264;DHT22;34086;51.076;13.722;2022-10-15T18:37:24;14.70;99.90
48264;DHT22;34086;51.076;13.722;2022-10-15T18:38:24;14.70;99.90
48264;DHT22;34086;51.076;13.722;2022-10-15T18:39:25;14.70;99.90
48264;DHT22;34086;51.076;13.722;2022-10-15T18:40:26;14.60;99.90
48264;DHT22;34086;51.076;13.722;2022-10-15T18:41:36;14.60;99.90
48264;DHT22;34086;51.076;13.722;2022-10-15T18:42:41;14.60;99.90